Time;durP1;ratioP1;P1;durP2;ratioP2;P2;SDS_P1;SDS_P2;PMS_P1;PMS_P2;Temp;Humidity;BMP_temperature;BMP_pressure;BME280_temperature;BME280_humidity;BME280_pressure;Samples;Min_cycle;Max_cycle;Signal;HPM_P1;HPM_P2
2022/06/04 00:00:10;;;;;;;;;;;17.70;72.90;;;;;;5105594;28;19911;-71
2022/06/04 00:02:40;;;;;;;;;;;17.70;73.20;;;;;;5103172;28;19974;-71
2022/06/04 00:05:06;;;;;;;;;;;17.70;73.20;;;;;;5108360;28;19922;-71
2022/06/04 00:07:32;;;;;;;;;;;17.60;73.30;;;;;;5106173;27;19911;-71
2022/06/04 00:15:29;;;;;;;;;;;17.50;73.70;;;;;;5116367;28;20398;-70
2022/06/04 00:17:55;;;;;;;;;;;17.50;73.70;;;;;;5102999;28;19923;-70
2022/06/04 00:20:21;;;;;;;;;;;17.50;73.70;;;;;;5114660;28;19915;-70
2022/06/04 00:22:46;;;;;;;;;;;17.50;73.80;;;;;;5109347;27;20295;-71
2022/06/04 00:25:13;;;;;;;;;;;17.40;73.80;;;;;;5103797;28;19908;-71
2022/06/04 00:27:38;;;;;;;;;;;17.40;74.00;;;;;;5102631;28;19923;-71
2022/06/04 00:30:05;;;;;;;;;;;17.40;74.00;;;;;;5105310;28;19927;-70
2022/06/04 00:32:31;;;;;;;;;;;17.40;74.20;;;;;;5103016;28;19912;-70
2022/06/04 00:35:00;;;;;;;;;;;17.30;74.10;;;;;;5105242;28;20011;-71
2022/06/04 00:37:26;;;;;;;;;;;17.30;74.50;;;;;;5102644;28;20598;-71
2022/06/04 00:39:51;;;;;;;;;;;17.30;74.40;;;;;;5104991;28;19972;-71
2022/06/04 00:42:20;;;;;;;;;;;17.30;74.40;;;;;;5102607;28;19990;-71
2022/06/04 00:44:48;;;;;;;;;;;17.20;74.30;;;;;;5106868;28;20391;-71
2022/06/04 00:47:32;;;;;;;;;;;17.20;74.40;;;;;;5106141;28;19973;-70
2022/06/04 00:49:57;;;;;;;;;;;17.20;75.00;;;;;;5108734;28;19916;-71
2022/06/04 00:52:24;;;;;;;;;;;17.10;74.90;;;;;;5106915;28;20566;-71
2022/06/04 00:54:53;;;;;;;;;;;17.20;75.20;;;;;;5088142;28;19969;-70
2022/06/04 00:57:37;;;;;;;;;;;17.10;75.30;;;;;;5088374;28;19908;-70
2022/06/04 01:00:03;;;;;;;;;;;17.10;75.30;;;;;;5088550;28;19981;-69
2022/06/04 01:02:28;;;;;;;;;;;17.00;75.10;;;;;;5088541;28;19948;-71
2022/06/04 01:05:13;;;;;;;;;;;17.00;75.00;;;;;;5105518;27;19911;-71
2022/06/04 01:07:49;;;;;;;;;;;17.00;75.40;;;;;;5121399;27;19946;-71
2022/06/04 01:10:18;;;;;;;;;;;17.00;75.40;;;;;;5105919;28;19959;-71
2022/06/04 01:13:02;;;;;;;;;;;17.00;75.30;;;;;;5108508;28;19919;-70
2022/06/04 01:15:43;;;;;;;;;;;16.90;75.40;;;;;;5105688;28;19947;-71
2022/06/04 01:18:13;;;;;;;;;;;16.90;75.60;;;;;;5094061;28;19912;-71
2022/06/04 01:20:42;;;;;;;;;;;16.90;75.80;;;;;;5116473;27;19915;-71
2022/06/04 01:23:14;;;;;;;;;;;16.90;76.00;;;;;;5109344;27;19915;-71
2022/06/04 01:26:01;;;;;;;;;;;16.80;75.60;;;;;;5107324;27;19916;-71
2022/06/04 01:28:27;;;;;;;;;;;16.80;75.60;;;;;;5102179;28;19920;-71
2022/06/04 01:30:57;;;;;;;;;;;16.80;75.70;;;;;;5102717;28;19927;-70
2022/06/04 01:33:29;;;;;;;;;;;16.80;76.00;;;;;;5107711;28;19912;-71
2022/06/04 01:35:54;;;;;;;;;;;16.70;76.20;;;;;;5104061;28;20515;-70
2022/06/04 01:38:30;;;;;;;;;;;16.70;76.20;;;;;;5107064;28;20002;-71
2022/06/04 01:41:04;;;;;;;;;;;16.70;76.30;;;;;;5104806;27;20375;-71
2022/06/04 01:43:32;;;;;;;;;;;16.70;76.30;;;;;;5108116;28;19919;-71
2022/06/04 01:46:01;;;;;;;;;;;16.70;76.40;;;;;;5105259;28;19934;-71
2022/06/04 01:48:28;;;;;;;;;;;16.60;76.10;;;;;;5091590;28;19923;-71
2022/06/04 01:50:56;;;;;;;;;;;16.60;76.50;;;;;;5097440;27;19924;-70
2022/06/04 01:53:30;;;;;;;;;;;16.60;76.60;;;;;;5108243;28;19919;-71
2022/06/04 01:55:59;;;;;;;;;;;16.60;76.60;;;;;;5104362;28;19993;-70
2022/06/04 01:58:30;;;;;;;;;;;16.60;76.60;;;;;;5107909;28;20018;-71
2022/06/04 02:01:03;;;;;;;;;;;16.60;76.70;;;;;;5105378;28;19942;-71
2022/06/04 02:03:31;;;;;;;;;;;16.50;76.90;;;;;;5108107;28;20002;-71
2022/06/04 02:05:59;;;;;;;;;;;16.50;76.90;;;;;;5108090;27;19911;-71
2022/06/04 02:08:28;;;;;;;;;;;16.50;76.80;;;;;;5107363;27;19916;-71
2022/06/04 02:11:08;;;;;;;;;;;16.50;76.40;;;;;;5105594;27;19950;-70
2022/06/04 02:13:34;;;;;;;;;;;16.50;76.60;;;;;;5119131;27;19915;-71
2022/06/04 02:16:04;;;;;;;;;;;16.40;76.80;;;;;;5144858;27;19912;-70
2022/06/04 02:18:29;;;;;;;;;;;16.40;77.00;;;;;;5106208;28;19916;-70
2022/06/04 02:20:55;;;;;;;;;;;16.40;77.10;;;;;;5116769;27;19919;-70
2022/06/04 02:23:21;;;;;;;;;;;16.40;77.10;;;;;;5109468;27;20553;-71
2022/06/04 02:25:46;;;;;;;;;;;16.40;77.20;;;;;;5107384;27;19961;-71
2022/06/04 02:28:12;;;;;;;;;;;16.40;77.10;;;;;;5104463;27;20692;-71
2022/06/04 02:30:46;;;;;;;;;;;16.40;77.10;;;;;;5107018;28;19922;-71
2022/06/04 02:33:26;;;;;;;;;;;16.30;76.60;;;;;;5104550;28;19955;-71
2022/06/04 02:35:55;;;;;;;;;;;16.30;77.00;;;;;;5105079;28;19943;-71
2022/06/04 02:38:27;;;;;;;;;;;16.30;77.30;;;;;;5104543;28;19922;-71
2022/06/04 02:41:04;;;;;;;;;;;16.30;77.20;;;;;;5106821;28;20337;-71
2022/06/04 02:43:42;;;;;;;;;;;16.30;77.40;;;;;;5104346;27;20026;-71
2022/06/04 02:46:17;;;;;;;;;;;16.30;77.40;;;;;;5106275;28;19912;-70
2022/06/04 02:49:05;;;;;;;;;;;16.30;77.30;;;;;;5102402;28;19916;-71
2022/06/04 02:51:34;;;;;;;;;;;16.20;77.40;;;;;;5098128;28;19920;-70
2022/06/04 02:54:02;;;;;;;;;;;16.20;77.50;;;;;;5104138;28;19916;-71
2022/06/04 02:56:30;;;;;;;;;;;16.20;77.60;;;;;;5106224;28;20026;-71
2022/06/04 02:58:58;;;;;;;;;;;16.20;77.70;;;;;;5118208;27;19922;-71
2022/06/04 03:01:24;;;;;;;;;;;16.10;77.50;;;;;;5127420;27;19964;-71
2022/06/04 03:03:50;;;;;;;;;;;16.20;77.80;;;;;;5111836;27;19915;-70
2022/06/04 03:06:26;;;;;;;;;;;16.20;77.90;;;;;;5119107;27;19930;-71
2022/06/04 03:08:52;;;;;;;;;;;16.20;77.80;;;;;;5113921;27;19961;-71
2022/06/04 03:11:18;;;;;;;;;;;16.20;77.90;;;;;;5106349;28;20707;-71
2022/06/04 03:13:45;;;;;;;;;;;16.10;77.30;;;;;;5107835;27;19915;-71
2022/06/04 03:16:12;;;;;;;;;;;16.10;77.70;;;;;;5104611;28;19912;-71
2022/06/04 03:18:37;;;;;;;;;;;16.10;77.50;;;;;;5091532;28;19912;-71
2022/06/04 03:21:04;;;;;;;;;;;16.10;77.70;;;;;;5121422;27;19918;-71
2022/06/04 03:23:29;;;;;;;;;;;16.10;77.80;;;;;;5153983;27;20276;-71
2022/06/04 03:25:55;;;;;;;;;;;16.10;77.80;;;;;;5106004;28;19928;-71
2022/06/04 03:28:20;;;;;;;;;;;16.10;77.70;;;;;;5104457;28;19919;-71
2022/06/04 03:30:46;;;;;;;;;;;16.10;77.80;;;;;;5105335;28;19927;-71
2022/06/04 03:33:11;;;;;;;;;;;16.00;77.90;;;;;;5106034;28;19966;-71
2022/06/04 03:35:37;;;;;;;;;;;16.00;77.60;;;;;;5103271;28;19946;-71
2022/06/04 03:38:03;;;;;;;;;;;16.00;77.70;;;;;;5106035;28;19915;-71
2022/06/04 03:40:28;;;;;;;;;;;16.00;77.60;;;;;;5103393;28;19916;-71
2022/06/04 03:42:54;;;;;;;;;;;16.00;77.40;;;;;;5105778;28;19963;-71
2022/06/04 03:45:19;;;;;;;;;;;16.00;77.60;;;;;;5102667;28;19912;-71
2022/06/04 03:47:45;;;;;;;;;;;16.00;78.00;;;;;;5104488;28;19916;-71
2022/06/04 03:50:12;;;;;;;;;;;16.00;78.00;;;;;;5103579;28;19915;-71
2022/06/04 03:52:38;;;;;;;;;;;16.00;78.00;;;;;;5105621;28;20494;-71
2022/06/04 03:55:05;;;;;;;;;;;16.00;77.80;;;;;;5103595;28;19915;-70
2022/06/04 03:57:38;;;;;;;;;;;16.00;77.50;;;;;;5105682;28;19916;-71
2022/06/04 04:00:12;;;;;;;;;;;16.00;77.10;;;;;;5103259;28;19954;-71
2022/06/04 04:02:38;;;;;;;;;;;16.00;77.20;;;;;;5105087;28;19918;-71
2022/06/04 04:05:05;;;;;;;;;;;16.00;77.60;;;;;;5102476;28;19915;-70
2022/06/04 04:07:31;;;;;;;;;;;16.00;77.10;;;;;;5104860;28;20011;-71
2022/06/04 04:09:56;;;;;;;;;;;16.00;77.30;;;;;;5102198;28;20376;-70
2022/06/04 04:12:22;;;;;;;;;;;16.00;77.10;;;;;;5106263;27;19980;-71
2022/06/04 04:14:47;;;;;;;;;;;16.00;77.40;;;;;;5117633;28;20436;-71
2022/06/04 04:17:13;;;;;;;;;;;15.90;77.50;;;;;;5100426;28;19961;-70
2022/06/04 04:19:38;;;;;;;;;;;16.00;77.60;;;;;;5110378;27;19923;-71
2022/06/04 04:22:04;;;;;;;;;;;16.00;77.10;;;;;;5112354;27;19981;-71
2022/06/04 04:24:29;;;;;;;;;;;16.00;77.10;;;;;;5120756;27;20031;-71
2022/06/04 04:26:55;;;;;;;;;;;16.00;77.40;;;;;;5114505;27;19965;-70
2022/06/04 04:29:20;;;;;;;;;;;16.00;77.10;;;;;;5109360;28;19959;-71
2022/06/04 04:31:46;;;;;;;;;;;16.00;77.20;;;;;;5107047;28;20015;-71
2022/06/04 04:34:11;;;;;;;;;;;15.90;77.10;;;;;;5109359;28;19930;-71
2022/06/04 04:36:37;;;;;;;;;;;15.90;77.10;;;;;;5106615;28;19918;-71
2022/06/04 04:39:03;;;;;;;;;;;15.90;77.20;;;;;;5108936;28;19957;-71
2022/06/04 04:41:29;;;;;;;;;;;15.90;77.30;;;;;;5106534;28;19965;-71
2022/06/04 04:43:54;;;;;;;;;;;15.90;77.20;;;;;;5108888;28;19912;-71
2022/06/04 04:46:19;;;;;;;;;;;16.00;77.10;;;;;;5107525;28;19919;-71
2022/06/04 04:48:46;;;;;;;;;;;15.90;77.10;;;;;;5108206;28;20557;-71
2022/06/04 04:51:18;;;;;;;;;;;15.90;77.20;;;;;;5109192;28;20256;-70
2022/06/04 04:53:44;;;;;;;;;;;16.00;77.10;;;;;;5106569;28;19923;-71
2022/06/04 04:56:09;;;;;;;;;;;15.90;77.40;;;;;;5108601;27;19919;-71
2022/06/04 04:58:36;;;;;;;;;;;16.00;77.30;;;;;;5106614;28;19915;-70
2022/06/04 05:01:01;;;;;;;;;;;16.00;77.30;;;;;;5108608;28;19919;-70
2022/06/04 05:03:27;;;;;;;;;;;16.00;77.10;;;;;;5106380;28;19916;-71
2022/06/04 05:06:02;;;;;;;;;;;16.00;77.40;;;;;;5118002;27;20012;-71
2022/06/04 05:08:28;;;;;;;;;;;16.00;77.50;;;;;;5115371;27;19923;-71
2022/06/04 05:10:54;;;;;;;;;;;16.00;77.30;;;;;;5108539;28;20561;-70
2022/06/04 05:13:19;;;;;;;;;;;16.00;77.40;;;;;;5113344;27;20601;-71
2022/06/04 05:15:45;;;;;;;;;;;16.10;77.50;;;;;;5128831;27;19919;-70
2022/06/04 05:18:11;;;;;;;;;;;16.00;77.40;;;;;;5111710;27;20348;-71
2022/06/04 05:20:37;;;;;;;;;;;16.10;77.50;;;;;;5119395;27;20022;-71
2022/06/04 05:23:02;;;;;;;;;;;16.10;77.30;;;;;;5123689;27;20039;-71
2022/06/04 05:25:28;;;;;;;;;;;16.10;77.60;;;;;;5128473;27;19915;-71
2022/06/04 05:27:53;;;;;;;;;;;16.10;77.30;;;;;;5128826;27;19918;-71
2022/06/04 05:30:19;;;;;;;;;;;16.20;77.10;;;;;;5104788;28;19963;-71
2022/06/04 05:32:44;;;;;;;;;;;16.10;77.40;;;;;;5107570;28;19919;-70
2022/06/04 05:35:10;;;;;;;;;;;16.20;77.40;;;;;;5105198;28;19923;-71
2022/06/04 05:37:36;;;;;;;;;;;16.20;77.30;;;;;;5107322;28;19938;-71
2022/06/04 05:40:04;;;;;;;;;;;16.20;77.40;;;;;;5118678;27;19916;-71
2022/06/04 05:42:29;;;;;;;;;;;16.30;77.40;;;;;;5128570;27;19918;-71
2022/06/04 05:44:55;;;;;;;;;;;16.30;77.40;;;;;;5114109;27;19916;-70
2022/06/04 05:47:20;;;;;;;;;;;16.30;77.60;;;;;;5107586;28;20355;-70
2022/06/04 05:49:46;;;;;;;;;;;16.30;77.40;;;;;;5105102;28;19922;-71
2022/06/04 05:52:11;;;;;;;;;;;16.30;77.50;;;;;;5107540;28;19922;-71
2022/06/04 05:54:37;;;;;;;;;;;16.30;77.50;;;;;;5105321;27;20363;-70
2022/06/04 05:57:03;;;;;;;;;;;16.30;77.50;;;;;;5107316;28;19950;-71
2022/06/04 05:59:28;;;;;;;;;;;16.40;77.40;;;;;;5105533;28;20015;-71
2022/06/04 06:01:54;;;;;;;;;;;16.40;77.50;;;;;;5107587;28;20315;-71
2022/06/04 06:04:20;;;;;;;;;;;16.40;77.40;;;;;;5106193;28;19920;-71
2022/06/04 06:06:47;;;;;;;;;;;16.40;77.30;;;;;;5123032;27;19911;-71
2022/06/04 06:09:13;;;;;;;;;;;16.40;77.40;;;;;;5112476;27;20386;-71
2022/06/04 06:11:40;;;;;;;;;;;16.50;77.40;;;;;;5111882;27;19924;-71
2022/06/04 06:14:08;;;;;;;;;;;16.50;77.50;;;;;;5123278;27;19911;-71
2022/06/04 06:16:34;;;;;;;;;;;16.50;77.40;;;;;;5109253;27;20002;-71
2022/06/04 06:19:00;;;;;;;;;;;16.50;77.40;;;;;;5107389;28;19919;-71
2022/06/04 06:21:30;;;;;;;;;;;16.50;77.30;;;;;;5121225;27;19915;-71
2022/06/04 06:23:56;;;;;;;;;;;16.60;77.30;;;;;;5120255;27;19911;-71
2022/06/04 06:26:23;;;;;;;;;;;16.60;77.30;;;;;;5113939;27;19980;-70
2022/06/04 06:28:48;;;;;;;;;;;16.70;77.30;;;;;;5115491;27;19920;-71
2022/06/04 06:31:16;;;;;;;;;;;16.70;77.30;;;;;;5104575;28;20036;-71
2022/06/04 06:33:42;;;;;;;;;;;16.70;77.10;;;;;;5107106;28;19919;-71
2022/06/04 06:36:09;;;;;;;;;;;16.70;77.20;;;;;;5104342;28;19915;-71
2022/06/04 06:38:35;;;;;;;;;;;16.70;77.10;;;;;;5106620;28;19912;-71
2022/06/04 06:41:00;;;;;;;;;;;16.80;77.10;;;;;;5104361;28;20372;-71
2022/06/04 06:43:42;;;;;;;;;;;16.80;77.30;;;;;;5106436;28;19957;-71
2022/06/04 06:46:07;;;;;;;;;;;16.90;77.30;;;;;;5104068;28;19911;-70
2022/06/04 06:48:33;;;;;;;;;;;16.90;77.20;;;;;;5106389;28;20328;-71
2022/06/04 06:51:06;;;;;;;;;;;16.90;77.20;;;;;;5106428;28;19927;-71
2022/06/04 06:53:32;;;;;;;;;;;16.90;77.10;;;;;;5104639;27;19994;-71
2022/06/04 06:55:58;;;;;;;;;;;17.00;77.30;;;;;;5106680;28;19919;-71
2022/06/04 06:58:23;;;;;;;;;;;17.00;77.30;;;;;;5103990;27;19947;-71
2022/06/04 07:00:51;;;;;;;;;;;17.10;77.30;;;;;;5105696;28;20014;-71
2022/06/04 07:03:18;;;;;;;;;;;17.10;77.00;;;;;;5103390;27;19916;-71
2022/06/04 07:05:43;;;;;;;;;;;17.20;77.00;;;;;;5113848;27;19915;-71
2022/06/04 07:08:09;;;;;;;;;;;17.30;76.90;;;;;;5111208;27;19923;-71
2022/06/04 07:10:34;;;;;;;;;;;17.30;76.90;;;;;;5104545;28;19911;-70
2022/06/04 07:13:00;;;;;;;;;;;17.30;76.80;;;;;;5108976;27;20675;-71
2022/06/04 07:15:25;;;;;;;;;;;17.40;76.90;;;;;;5126619;27;19915;-70
2022/06/04 07:17:51;;;;;;;;;;;17.40;76.80;;;;;;5112113;27;19912;-71
2022/06/04 07:20:16;;;;;;;;;;;17.40;76.50;;;;;;5114209;27;19916;-71
2022/06/04 07:22:42;;;;;;;;;;;17.50;76.30;;;;;;5120987;27;19922;-71
2022/06/04 07:25:07;;;;;;;;;;;17.50;76.30;;;;;;5111074;27;19922;-71
2022/06/04 07:27:33;;;;;;;;;;;17.60;76.60;;;;;;5104743;28;19914;-71
2022/06/04 07:29:58;;;;;;;;;;;17.70;76.60;;;;;;5104765;28;19923;-71
2022/06/04 07:32:24;;;;;;;;;;;17.70;76.50;;;;;;5105568;28;20580;-71
2022/06/04 07:34:49;;;;;;;;;;;17.80;76.20;;;;;;5118869;27;20026;-71
2022/06/04 07:37:16;;;;;;;;;;;17.80;76.00;;;;;;5105775;28;19916;-71
2022/06/04 07:39:41;;;;;;;;;;;17.80;76.10;;;;;;5103999;28;20664;-71
2022/06/04 07:42:07;;;;;;;;;;;17.80;76.20;;;;;;5105868;28;19915;-71
2022/06/04 07:44:32;;;;;;;;;;;17.80;76.30;;;;;;5103289;28;19920;-71
2022/06/04 07:46:58;;;;;;;;;;;17.80;76.40;;;;;;5105576;28;19912;-71
2022/06/04 07:49:24;;;;;;;;;;;17.90;76.40;;;;;;5103233;28;19916;-71
2022/06/04 07:51:50;;;;;;;;;;;17.90;76.60;;;;;;5105538;28;19916;-71
2022/06/04 07:54:16;;;;;;;;;;;17.90;76.30;;;;;;5102825;28;20036;-71
2022/06/04 07:56:42;;;;;;;;;;;17.90;76.30;;;;;;5105286;28;20343;-71
2022/06/04 07:59:09;;;;;;;;;;;18.00;76.30;;;;;;5102941;28;19916;-71
2022/06/04 08:01:36;;;;;;;;;;;18.00;76.20;;;;;;5105076;28;19918;-71
2022/06/04 08:04:01;;;;;;;;;;;18.10;76.20;;;;;;5103643;28;19908;-71
2022/06/04 08:06:28;;;;;;;;;;;18.10;76.20;;;;;;5119069;28;19933;-70
2022/06/04 08:08:54;;;;;;;;;;;18.10;76.20;;;;;;5113784;27;19911;-72
2022/06/04 08:11:32;;;;;;;;;;;18.10;76.30;;;;;;5102916;28;20014;-71
2022/06/04 08:13:59;;;;;;;;;;;18.10;76.30;;;;;;5120068;28;19911;-71
2022/06/04 08:16:25;;;;;;;;;;;18.20;76.10;;;;;;5105789;27;19919;-71
2022/06/04 08:18:50;;;;;;;;;;;18.20;76.20;;;;;;5105004;28;19912;-71
2022/06/04 08:21:16;;;;;;;;;;;18.30;76.30;;;;;;5102650;28;19912;-71
2022/06/04 08:23:44;;;;;;;;;;;18.40;76.50;;;;;;5110492;28;19911;-71
2022/06/04 08:26:10;;;;;;;;;;;18.40;76.30;;;;;;5110875;27;20052;-71
2022/06/04 08:28:37;;;;;;;;;;;18.40;76.10;;;;;;5105219;28;20478;-71
2022/06/04 08:31:04;;;;;;;;;;;18.50;75.80;;;;;;5103086;28;20358;-71
2022/06/04 08:33:30;;;;;;;;;;;18.50;75.50;;;;;;5105241;28;20314;-71
2022/06/04 08:35:56;;;;;;;;;;;18.60;75.60;;;;;;5102608;28;20006;-71
2022/06/04 08:38:21;;;;;;;;;;;18.60;75.30;;;;;;5105246;28;19911;-71
2022/06/04 08:40:51;;;;;;;;;;;18.60;75.40;;;;;;5102844;28;19912;-71
2022/06/04 08:43:36;;;;;;;;;;;18.70;75.60;;;;;;5104976;28;19957;-71
2022/06/04 08:46:02;;;;;;;;;;;18.70;75.50;;;;;;5102675;28;20018;-71
2022/06/04 08:48:34;;;;;;;;;;;18.80;75.40;;;;;;5105262;28;20010;-71
2022/06/04 08:51:00;;;;;;;;;;;18.80;75.00;;;;;;5103157;28;20554;-71
2022/06/04 08:53:27;;;;;;;;;;;18.90;75.10;;;;;;5105037;28;19919;-71
2022/06/04 08:58:48;;;;;;;;;;;19.00;75.50;;;;;;5105614;28;19927;-71
2022/06/04 09:01:19;;;;;;;;;;;19.10;75.20;;;;;;5103826;28;20001;-71
2022/06/04 09:03:55;;;;;;;;;;;19.10;75.40;;;;;;5084658;28;19912;-71
2022/06/04 09:06:30;;;;;;;;;;;19.20;75.00;;;;;;5112155;27;19912;-71
2022/06/04 09:09:03;;;;;;;;;;;19.20;75.00;;;;;;5107459;28;19912;-71
2022/06/04 09:11:31;;;;;;;;;;;19.30;75.10;;;;;;5107875;27;19989;-71
2022/06/04 09:14:09;;;;;;;;;;;19.30;75.10;;;;;;5121701;27;20420;-71
2022/06/04 09:16:37;;;;;;;;;;;19.40;74.70;;;;;;5107604;27;19912;-71
2022/06/04 09:19:04;;;;;;;;;;;19.50;74.50;;;;;;5108045;27;19912;-71
2022/06/04 09:21:35;;;;;;;;;;;19.60;74.30;;;;;;5110738;27;19957;-71
2022/06/04 09:24:00;;;;;;;;;;;19.60;73.80;;;;;;5107992;27;20458;-71
2022/06/04 09:26:31;;;;;;;;;;;19.70;74.00;;;;;;5121752;27;19911;-71
2022/06/04 09:29:15;;;;;;;;;;;19.80;73.90;;;;;;5111344;27;19926;-71
2022/06/04 09:31:47;;;;;;;;;;;19.80;73.90;;;;;;5108367;28;19915;-71
2022/06/04 09:34:14;;;;;;;;;;;19.80;74.30;;;;;;5106250;28;20391;-71
2022/06/04 09:36:42;;;;;;;;;;;19.80;74.00;;;;;;5102030;28;19912;-71
2022/06/04 09:39:22;;;;;;;;;;;19.80;74.10;;;;;;5104959;28;19916;-71
2022/06/04 09:41:50;;;;;;;;;;;19.90;74.40;;;;;;5108684;28;19912;-71
2022/06/04 09:44:15;;;;;;;;;;;19.90;74.80;;;;;;5106052;28;20007;-71
2022/06/04 09:46:45;;;;;;;;;;;19.90;75.00;;;;;;5108157;28;20014;-71
2022/06/04 09:49:32;;;;;;;;;;;19.90;74.50;;;;;;5106200;28;19912;-71
2022/06/04 09:51:58;;;;;;;;;;;19.90;74.20;;;;;;5097149;28;20421;-71
2022/06/04 09:54:26;;;;;;;;;;;19.90;73.90;;;;;;5106245;28;19912;-71
2022/06/04 09:56:54;;;;;;;;;;;19.90;74.10;;;;;;5107940;27;19919;-70
2022/06/04 09:59:19;;;;;;;;;;;20.00;73.90;;;;;;5094588;28;19911;-71
2022/06/04 10:01:51;;;;;;;;;;;20.00;73.90;;;;;;5093681;28;19923;-71
2022/06/04 10:04:17;;;;;;;;;;;20.10;74.50;;;;;;5105522;27;19907;-71
2022/06/04 10:06:42;;;;;;;;;;;20.10;74.20;;;;;;5107952;28;19965;-71
2022/06/04 10:12:03;;;;;;;;;;;20.20;73.90;;;;;;5096354;28;19942;-71
2022/06/04 10:14:31;;;;;;;;;;;20.20;73.70;;;;;;5110663;27;19922;-71
2022/06/04 10:16:57;;;;;;;;;;;20.20;73.80;;;;;;5124066;27;19916;-71
2022/06/04 10:19:24;;;;;;;;;;;20.30;73.70;;;;;;5104622;27;19966;-71
2022/06/04 10:22:01;;;;;;;;;;;20.30;73.80;;;;;;5106593;28;19984;-71
2022/06/04 10:24:29;;;;;;;;;;;20.30;73.50;;;;;;5115716;27;19908;-71
2022/06/04 10:26:56;;;;;;;;;;;20.40;73.60;;;;;;5106390;28;19968;-71
2022/06/04 10:29:32;;;;;;;;;;;20.40;73.40;;;;;;5117778;27;20436;-71
2022/06/04 10:32:17;;;;;;;;;;;20.40;73.30;;;;;;5106672;28;19916;-71
2022/06/04 10:35:17;;;;;;;;;;;20.40;73.30;;;;;;5103548;28;20295;-71
2022/06/04 10:37:48;;;;;;;;;;;20.50;73.30;;;;;;5071475;28;19916;-71
2022/06/04 10:40:25;;;;;;;;;;;20.50;73.40;;;;;;5091876;27;20433;-71
2022/06/04 10:42:58;;;;;;;;;;;20.50;73.30;;;;;;5106337;28;20368;-71
2022/06/04 10:45:46;;;;;;;;;;;20.60;73.10;;;;;;5102561;28;20268;-71
2022/06/04 10:48:34;;;;;;;;;;;20.60;72.90;;;;;;5065688;28;19920;-71
2022/06/04 10:51:27;;;;;;;;;;;20.70;72.80;;;;;;5089421;28;19922;-71
2022/06/04 10:54:04;;;;;;;;;;;20.70;72.70;;;;;;5106251;28;19926;-71
2022/06/04 10:56:42;;;;;;;;;;;20.80;72.70;;;;;;5108230;27;19911;-71
2022/06/04 10:59:13;;;;;;;;;;;20.90;72.40;;;;;;5106715;28;19916;-71
2022/06/04 11:01:43;;;;;;;;;;;21.00;72.40;;;;;;5109502;27;19960;-71
2022/06/04 11:04:08;;;;;;;;;;;21.20;71.80;;;;;;5113684;27;19957;-71
2022/06/04 11:06:41;;;;;;;;;;;21.30;71.90;;;;;;5108780;27;19942;-71
2022/06/04 11:09:14;;;;;;;;;;;21.50;71.50;;;;;;5108445;27;19922;-71
2022/06/04 11:11:44;;;;;;;;;;;21.60;71.30;;;;;;5101128;28;19927;-71
2022/06/04 11:14:11;;;;;;;;;;;21.70;71.10;;;;;;5105241;28;19911;-71
2022/06/04 11:16:43;;;;;;;;;;;21.70;70.70;;;;;;5102768;28;19951;-71
2022/06/04 11:19:11;;;;;;;;;;;21.80;70.60;;;;;;5105914;27;19919;-71
2022/06/04 11:21:40;;;;;;;;;;;21.90;70.50;;;;;;5101801;27;20620;-71
2022/06/04 11:24:12;;;;;;;;;;;22.00;70.50;;;;;;5102519;27;20375;-71
2022/06/04 11:26:38;;;;;;;;;;;22.00;70.90;;;;;;5112685;27;19943;-72
2022/06/04 11:29:04;;;;;;;;;;;22.00;70.90;;;;;;5103066;27;19959;-71
2022/06/04 11:31:45;;;;;;;;;;;22.10;71.10;;;;;;5105501;28;19923;-71
2022/06/04 11:34:29;;;;;;;;;;;22.10;70.70;;;;;;5101057;28;19916;-71
2022/06/04 11:37:00;;;;;;;;;;;22.20;71.10;;;;;;5104993;28;19911;-71
2022/06/04 11:39:44;;;;;;;;;;;22.30;70.30;;;;;;5101634;28;19915;-71
2022/06/04 11:42:17;;;;;;;;;;;22.40;70.20;;;;;;5105644;28;20371;-71
2022/06/04 11:44:55;;;;;;;;;;;22.50;70.40;;;;;;5101994;28;19947;-70
2022/06/04 11:47:21;;;;;;;;;;;22.50;70.20;;;;;;5098012;28;20566;-71
2022/06/04 11:50:19;;;;;;;;;;;22.60;69.80;;;;;;5101930;28;19912;-71
2022/06/04 11:53:07;;;;;;;;;;;22.70;69.80;;;;;;5069954;28;19916;-71
2022/06/04 11:55:37;;;;;;;;;;;22.80;69.70;;;;;;5102966;28;19953;-71
2022/06/04 11:58:03;;;;;;;;;;;22.90;69.40;;;;;;5102865;28;19916;-71
2022/06/04 12:00:40;;;;;;;;;;;23.00;69.60;;;;;;5107591;28;19923;-70
2022/06/04 12:03:12;;;;;;;;;;;23.10;69.40;;;;;;5117401;27;19918;-71
2022/06/04 12:05:46;;;;;;;;;;;23.10;69.30;;;;;;5103653;28;20007;-71
2022/06/04 12:08:13;;;;;;;;;;;23.20;69.20;;;;;;5099852;28;19918;-72
2022/06/04 12:10:57;;;;;;;;;;;23.30;69.00;;;;;;5113705;28;20275;-72
2022/06/04 12:13:28;;;;;;;;;;;23.30;68.60;;;;;;5110532;28;19968;-72
2022/06/04 12:16:00;;;;;;;;;;;23.40;68.90;;;;;;5102557;28;20028;-73
2022/06/04 12:18:28;;;;;;;;;;;23.40;69.20;;;;;;5097884;28;19919;-72
2022/06/04 12:26:24;;;;;;;;;;;23.40;69.00;;;;;;5103733;28;19922;-72
2022/06/04 12:28:51;;;;;;;;;;;23.40;69.10;;;;;;5104032;28;19920;-72
2022/06/04 12:31:28;;;;;;;;;;;23.40;69.10;;;;;;5102802;28;20010;-72
2022/06/04 12:33:56;;;;;;;;;;;23.40;69.30;;;;;;5105279;28;19908;-72
2022/06/04 12:36:27;;;;;;;;;;;23.40;69.40;;;;;;5102644;28;19912;-72
2022/06/04 12:39:18;;;;;;;;;;;23.40;69.50;;;;;;5104851;28;19916;-72
2022/06/04 12:41:46;;;;;;;;;;;23.50;69.20;;;;;;5103366;28;20344;-72
2022/06/04 12:44:28;;;;;;;;;;;23.50;68.70;;;;;;5109299;28;19911;-72
2022/06/04 12:46:55;;;;;;;;;;;23.60;68.40;;;;;;5105981;27;19923;-72
2022/06/04 12:49:33;;;;;;;;;;;23.60;68.30;;;;;;5108165;28;19912;-73
2022/06/04 12:52:06;;;;;;;;;;;23.60;68.00;;;;;;5121934;27;19924;-72
2022/06/04 12:54:51;;;;;;;;;;;23.70;68.00;;;;;;5088960;28;20397;-72
2022/06/04 12:57:49;;;;;;;;;;;23.70;67.90;;;;;;5103736;28;19975;-72
2022/06/04 13:00:17;;;;;;;;;;;23.90;67.60;;;;;;5079490;28;19922;-72
2022/06/04 13:02:54;;;;;;;;;;;24.10;67.60;;;;;;5093829;27;19916;-72
2022/06/04 13:05:21;;;;;;;;;;;24.20;67.30;;;;;;5118566;27;19912;-72
2022/06/04 13:08:05;;;;;;;;;;;24.20;67.10;;;;;;5104238;28;19916;-72
2022/06/04 13:10:38;;;;;;;;;;;24.30;67.20;;;;;;5088097;28;20340;-72
2022/06/04 13:13:12;;;;;;;;;;;24.40;67.00;;;;;;5105131;27;19915;-72
2022/06/04 13:15:52;;;;;;;;;;;24.50;66.60;;;;;;5105947;28;20031;-72
2022/06/04 13:18:30;;;;;;;;;;;24.60;66.60;;;;;;5105541;28;20401;-72
2022/06/04 13:20:58;;;;;;;;;;;24.70;66.60;;;;;;5111900;27;19917;-72
2022/06/04 13:23:27;;;;;;;;;;;24.80;66.40;;;;;;5108325;27;19916;-72
2022/06/04 13:25:59;;;;;;;;;;;24.90;66.30;;;;;;5126989;27;19946;-71
2022/06/04 13:28:27;;;;;;;;;;;25.00;66.20;;;;;;5108701;27;19978;-72
2022/06/04 13:30:53;;;;;;;;;;;25.00;66.20;;;;;;5107506;28;19923;-72
2022/06/04 13:33:19;;;;;;;;;;;25.10;66.00;;;;;;5105659;27;19920;-72
2022/06/04 13:35:47;;;;;;;;;;;25.20;66.20;;;;;;5114392;27;19911;-72
2022/06/04 13:38:21;;;;;;;;;;;25.20;66.90;;;;;;5105444;28;19916;-72
2022/06/04 13:40:47;;;;;;;;;;;25.30;65.70;;;;;;5106856;28;19956;-72
2022/06/04 13:43:13;;;;;;;;;;;25.30;65.70;;;;;;5105768;28;19938;-72
2022/06/04 13:45:40;;;;;;;;;;;25.40;65.50;;;;;;5106525;28;20642;-72
2022/06/04 13:48:22;;;;;;;;;;;25.50;65.60;;;;;;5093578;28;19915;-72
2022/06/04 13:50:53;;;;;;;;;;;25.50;65.70;;;;;;5098969;28;19964;-72
2022/06/04 13:53:23;;;;;;;;;;;25.60;66.10;;;;;;5094620;28;20333;-72
2022/06/04 13:55:58;;;;;;;;;;;25.60;65.80;;;;;;5106001;28;20647;-72
2022/06/04 13:58:33;;;;;;;;;;;25.70;65.70;;;;;;5110367;27;19943;-72
2022/06/04 14:01:07;;;;;;;;;;;25.70;65.50;;;;;;5110795;27;19915;-72
2022/06/04 14:03:38;;;;;;;;;;;25.80;65.10;;;;;;5103863;27;19915;-72
2022/06/04 14:06:04;;;;;;;;;;;25.90;64.50;;;;;;5106219;28;19922;-72
2022/06/04 14:08:31;;;;;;;;;;;25.90;65.00;;;;;;5099708;28;19916;-72
2022/06/04 14:11:05;;;;;;;;;;;26.00;64.00;;;;;;5107701;28;19920;-72
2022/06/04 14:13:33;;;;;;;;;;;26.00;64.90;;;;;;5112670;27;19912;-72
2022/06/04 14:16:19;;;;;;;;;;;26.10;64.30;;;;;;5106609;27;19916;-72
2022/06/04 14:19:07;;;;;;;;;;;26.10;64.90;;;;;;5088954;27;19927;-71
2022/06/04 14:21:55;;;;;;;;;;;26.20;64.90;;;;;;5106083;28;19922;-72
2022/06/04 14:24:36;;;;;;;;;;;26.30;64.90;;;;;;5108433;27;20443;-72
2022/06/04 14:27:04;;;;;;;;;;;26.40;64.20;;;;;;5107451;28;19919;-72
2022/06/04 14:29:36;;;;;;;;;;;26.40;63.10;;;;;;5104946;28;19919;-72
2022/06/04 14:32:04;;;;;;;;;;;26.50;63.90;;;;;;5109614;27;19915;-72
2022/06/04 14:34:37;;;;;;;;;;;26.60;64.00;;;;;;5114653;27;19920;-72
2022/06/04 14:37:02;;;;;;;;;;;26.70;62.30;;;;;;5104944;28;19911;-72
2022/06/04 14:39:31;;;;;;;;;;;26.80;63.60;;;;;;5104866;27;19926;-72
2022/06/04 14:42:14;;;;;;;;;;;26.90;63.40;;;;;;5107420;28;19911;-72
2022/06/04 14:44:39;;;;;;;;;;;27.00;63.20;;;;;;5104282;28;19916;-72
2022/06/04 14:47:11;;;;;;;;;;;27.10;63.10;;;;;;5101913;28;19912;-72